sensor_id;sensor_type;location;lat;lon;timestamp;pressure;altitude;pressure_sealevel;temperature;humidity
44001;BME280;29660;42.892;24.710;2022-09-09T00:00:19;97026.41;;;15.96;97.77
44001;BME280;29660;42.892;24.710;2022-09-09T00:10:39;97104.31;;;16.39;98.52
44001;BME280;29660;42.892;24.710;2022-09-09T00:21:35;97105.59;;;16.33;100.00
44001;BME280;29660;42.892;24.710;2022-09-09T00:26:50;96851.91;;;14.66;100.00
44001;BME280;29660;42.892;24.710;2022-09-09T00:32:00;96859.00;;;14.70;100.00
44001;BME280;29660;42.892;24.710;2022-09-09T00:37:08;96864.22;;;14.67;99.80
44001;BME280;29660;42.892;24.710;2022-09-09T00:42:17;97102.13;;;16.24;99.69
44001;BME280;29660;42.892;24.710;2022-09-09T00:53:25;97071.81;;;15.98;100.00
44001;BME280;29660;42.892;24.710;2022-09-09T00:58:31;97017.75;;;15.64;99.01
44001;BME280;29660;42.892;24.710;2022-09-09T01:03:54;97082.09;;;16.04;100.00
44001;BME280;29660;42.892;24.710;2022-09-09T01:09:27;97082.38;;;16.03;100.00
44001;BME280;29660;42.892;24.710;2022-09-09T01:20:03;97081.28;;;15.95;100.00
44001;BME280;29660;42.892;24.710;2022-09-09T01:31:01;97050.34;;;15.80;100.00
44001;BME280;29660;42.892;24.710;2022-09-09T01:36:13;97067.41;;;15.84;100.00
44001;BME280;29660;42.892;24.710;2022-09-09T01:41:22;96972.09;;;15.21;100.00
44001;BME280;29660;42.892;24.710;2022-09-09T01:46:33;96854.09;;;14.46;100.00
44001;BME280;29660;42.892;24.710;2022-09-09T01:51:55;97005.44;;;15.37;100.00
44001;BME280;29660;42.892;24.710;2022-09-09T01:57:20;96834.50;;;14.20;100.00
44001;BME280;29660;42.892;24.710;2022-09-09T02:07:48;96797.56;;;13.99;100.00
44001;BME280;29660;42.892;24.710;2022-09-09T02:13:11;97010.31;;;15.35;100.00
44001;BME280;29660;42.892;24.710;2022-09-09T02:18:31;96856.91;;;14.24;100.00
44001;BME280;29660;42.892;24.710;2022-09-09T02:23:35;96785.97;;;13.73;100.00
44001;BME280;29660;42.892;24.710;2022-09-09T02:28:41;97022.34;;;15.29;100.00
44001;BME280;29660;42.892;24.710;2022-09-09T02:33:49;97039.72;;;15.40;100.00
44001;BME280;29660;42.892;24.710;2022-09-09T02:38:53;97043.06;;;15.37;100.00
44001;BME280;29660;42.892;24.710;2022-09-09T02:44:00;96807.44;;;13.82;100.00
44001;BME280;29660;42.892;24.710;2022-09-09T02:49:03;97076.25;;;15.41;100.00
44001;BME280;29660;42.892;24.710;2022-09-09T02:54:24;96879.31;;;14.19;100.00
44001;BME280;29660;42.892;24.710;2022-09-09T02:59:29;96817.03;;;13.74;100.00
44001;BME280;29660;42.892;24.710;2022-09-09T03:04:32;96940.41;;;14.48;100.00
44001;BME280;29660;42.892;24.710;2022-09-09T03:09:34;97056.34;;;15.25;100.00
44001;BME280;29660;42.892;24.710;2022-09-09T03:14:37;97043.19;;;15.15;100.00
44001;BME280;29660;42.892;24.710;2022-09-09T03:19:40;96804.69;;;13.56;100.00
44001;BME280;29660;42.892;24.710;2022-09-09T03:24:43;97059.16;;;15.20;100.00
44001;BME280;29660;42.892;24.710;2022-09-09T03:29:46;97006.84;;;14.83;100.00
44001;BME280;29660;42.892;24.710;2022-09-09T03:34:54;96786.97;;;13.37;100.00
44001;BME280;29660;42.892;24.710;2022-09-09T03:39:56;97074.94;;;15.13;100.00
44001;BME280;29660;42.892;24.710;2022-09-09T03:44:59;97027.66;;;14.77;100.00
44001;BME280;29660;42.892;24.710;2022-09-09T03:50:02;96855.81;;;13.68;100.00
44001;BME280;29660;42.892;24.710;2022-09-09T03:55:07;96832.88;;;13.44;100.00
44001;BME280;29660;42.892;24.710;2022-09-09T04:00:11;96862.41;;;13.62;100.00
44001;BME280;29660;42.892;24.710;2022-09-09T04:05:24;97071.47;;;15.04;100.00
44001;BME280;29660;42.892;24.710;2022-09-09T04:10:26;96991.28;;;14.54;100.00
44001;BME280;29660;42.892;24.710;2022-09-09T04:15:31;97007.28;;;14.67;100.00
44001;BME280;29660;42.892;24.710;2022-09-09T04:20:33;96857.09;;;13.79;100.00
44001;BME280;29660;42.892;24.710;2022-09-09T04:25:36;96804.06;;;13.59;100.00
44001;BME280;29660;42.892;24.710;2022-09-09T04:30:40;97030.88;;;15.14;100.00
44001;BME280;29660;42.892;24.710;2022-09-09T04:35:47;97067.41;;;15.58;100.00
44001;BME280;29660;42.892;24.710;2022-09-09T04:40:51;96835.44;;;14.24;100.00
44001;BME280;29660;42.892;24.710;2022-09-09T04:45:53;97073.88;;;15.92;100.00
44001;BME280;29660;42.892;24.710;2022-09-09T04:51:01;97043.03;;;15.89;100.00
44001;BME280;29660;42.892;24.710;2022-09-09T04:56:08;97053.09;;;16.10;100.00
44001;BME280;29660;42.892;24.710;2022-09-09T05:01:18;96871.63;;;14.96;100.00
44001;BME280;29660;42.892;24.710;2022-09-09T05:06:23;97012.94;;;16.05;100.00
44001;BME280;29660;42.892;24.710;2022-09-09T05:11:31;96867.91;;;15.35;98.98
44001;BME280;29660;42.892;24.710;2022-09-09T05:16:54;96848.91;;;15.49;98.54
44001;BME280;29660;42.892;24.710;2022-09-09T05:21:57;97082.94;;;17.11;98.06
44001;BME280;29660;42.892;24.710;2022-09-09T05:27:07;96906.16;;;16.26;96.73
44001;BME280;29660;42.892;24.710;2022-09-09T05:32:14;97019.38;;;17.31;95.94
44001;BME280;29660;42.892;24.710;2022-09-09T05:37:21;96876.00;;;16.62;94.37
44001;BME280;29660;42.892;24.710;2022-09-09T05:42:29;97040.44;;;17.91;93.84
44001;BME280;29660;42.892;24.710;2022-09-09T05:47:33;96874.13;;;17.17;92.34
44001;BME280;29660;42.892;24.710;2022-09-09T05:52:35;96814.13;;;17.08;90.40
44001;BME280;29660;42.892;24.710;2022-09-09T05:57:39;96821.25;;;17.25;90.05
44001;BME280;29660;42.892;24.710;2022-09-09T06:02:42;96859.84;;;17.74;89.91
44001;BME280;29660;42.892;24.710;2022-09-09T06:07:48;96814.47;;;17.76;88.53
44001;BME280;29660;42.892;24.710;2022-09-09T06:12:53;96788.84;;;17.82;88.52
44001;BME280;29660;42.892;24.710;2022-09-09T06:17:56;96990.66;;;19.40;88.01
44001;BME280;29660;42.892;24.710;2022-09-09T06:22:58;96966.94;;;19.49;87.04
44001;BME280;29660;42.892;24.710;2022-09-09T06:28:01;97029.31;;;20.12;86.71
44001;BME280;29660;42.892;24.710;2022-09-09T06:33:04;96968.47;;;20.06;84.63
44001;BME280;29660;42.892;24.710;2022-09-09T06:38:07;96880.44;;;19.80;82.34
44001;BME280;29660;42.892;24.710;2022-09-09T06:43:10;96998.22;;;20.85;80.46
44001;BME280;29660;42.892;24.710;2022-09-09T06:48:16;96819.06;;;20.00;78.75
44001;BME280;29660;42.892;24.710;2022-09-09T06:53:18;96608.19;;;18.89;78.17
44001;BME280;29660;42.892;24.710;2022-09-09T06:58:21;96801.56;;;20.49;76.55
44001;BME280;29660;42.892;24.710;2022-09-09T07:03:28;97024.16;;;22.18;73.09
44001;BME280;29660;42.892;24.710;2022-09-09T07:08:31;96974.44;;;22.14;72.62
44001;BME280;29660;42.892;24.710;2022-09-09T07:13:34;96800.91;;;21.37;71.85
44001;BME280;29660;42.892;24.710;2022-09-09T07:18:37;96906.09;;;22.39;70.84
44001;BME280;29660;42.892;24.710;2022-09-09T07:23:40;96791.78;;;21.98;71.13
44001;BME280;29660;42.892;24.710;2022-09-09T07:28:42;96799.31;;;22.35;70.12
44001;BME280;29660;42.892;24.710;2022-09-09T07:33:46;97025.63;;;24.05;67.57
44001;BME280;29660;42.892;24.710;2022-09-09T07:38:52;96838.34;;;23.13;63.25
44001;BME280;29660;42.892;24.710;2022-09-09T07:43:54;96804.28;;;23.26;63.55
44001;BME280;29660;42.892;24.710;2022-09-09T07:48:58;96993.94;;;24.86;61.61
44001;BME280;29660;42.892;24.710;2022-09-09T07:54:10;96804.88;;;23.98;59.73
44001;BME280;29660;42.892;24.710;2022-09-09T07:59:16;97009.97;;;25.67;59.80
44001;BME280;29660;42.892;24.710;2022-09-09T08:04:23;96801.34;;;24.63;57.97
44001;BME280;29660;42.892;24.710;2022-09-09T08:09:27;96990.97;;;26.10;58.47
44001;BME280;29660;42.892;24.710;2022-09-09T08:14:52;97000.78;;;26.47;55.88
44001;BME280;29660;42.892;24.710;2022-09-09T08:19:57;96798.50;;;25.47;55.02
44001;BME280;29660;42.892;24.710;2022-09-09T08:25:03;96816.47;;;25.84;54.27
44001;BME280;29660;42.892;24.710;2022-09-09T08:30:11;96793.41;;;25.92;54.22
44001;BME280;29660;42.892;24.710;2022-09-09T08:35:15;96982.66;;;27.35;52.77
44001;BME280;29660;42.892;24.710;2022-09-09T08:40:24;96773.44;;;26.27;49.72
44001;BME280;29660;42.892;24.710;2022-09-09T08:45:46;96934.06;;;27.43;50.81
44001;BME280;29660;42.892;24.710;2022-09-09T08:50:52;96979.22;;;27.94;49.39
44001;BME280;29660;42.892;24.710;2022-09-09T08:56:07;96951.00;;;28.01;48.68
44001;BME280;29660;42.892;24.710;2022-09-09T09:01:24;96980.53;;;28.34;49.29
44001;BME280;29660;42.892;24.710;2022-09-09T09:12:12;96965.31;;;28.71;44.82
44001;BME280;29660;42.892;24.710;2022-09-09T09:17:23;96708.09;;;27.24;42.19
44001;BME280;29660;42.892;24.710;2022-09-09T09:22:34;96774.97;;;27.79;41.83
44001;BME280;29660;42.892;24.710;2022-09-09T09:38:22;96794.75;;;28.42;40.82
44001;BME280;29660;42.892;24.710;2022-09-09T09:43:53;96895.28;;;29.28;41.50
44001;BME280;29660;42.892;24.710;2022-09-09T09:48:58;96848.44;;;29.08;40.31
44001;BME280;29660;42.892;24.710;2022-09-09T09:54:22;96944.28;;;29.91;39.01
44001;BME280;29660;42.892;24.710;2022-09-09T09:59:34;96958.31;;;30.00;39.64
44001;BME280;29660;42.892;24.710;2022-09-09T10:04:44;96738.69;;;28.74;38.53
44001;BME280;29660;42.892;24.710;2022-09-09T10:09:55;96928.41;;;30.02;37.28
44001;BME280;29660;42.892;24.710;2022-09-09T10:36:24;96757.00;;;29.38;36.65
44001;BME280;29660;42.892;24.710;2022-09-09T10:56:56;96898.88;;;30.76;37.17
44001;BME280;29660;42.892;24.710;2022-09-09T11:02:03;96937.72;;;31.22;36.08
44001;BME280;29660;42.892;24.710;2022-09-09T11:07:13;96743.41;;;29.78;36.74
44001;BME280;29660;42.892;24.710;2022-09-09T11:12:19;96768.78;;;29.86;38.00
44001;BME280;29660;42.892;24.710;2022-09-09T11:17:24;96804.13;;;30.11;37.87
44001;BME280;29660;42.892;24.710;2022-09-09T11:22:38;96925.00;;;31.08;37.34
44001;BME280;29660;42.892;24.710;2022-09-09T11:43:46;96936.50;;;30.83;40.00
44001;BME280;29660;42.892;24.710;2022-09-09T11:49:00;96762.13;;;29.36;41.45
44001;BME280;29660;42.892;24.710;2022-09-09T11:54:31;96944.56;;;30.27;42.44
44001;BME280;29660;42.892;24.710;2022-09-09T11:59:35;96756.69;;;28.75;43.17
44001;BME280;29660;42.892;24.710;2022-09-09T12:04:42;96925.09;;;29.60;43.45
44001;BME280;29660;42.892;24.710;2022-09-09T12:30:37;96746.63;;;27.51;50.66
44001;BME280;29660;42.892;24.710;2022-09-09T12:35:44;96856.03;;;28.21;53.46
44001;BME280;29660;42.892;24.710;2022-09-09T12:40:55;96770.63;;;27.33;56.35
44001;BME280;29660;42.892;24.710;2022-09-09T12:46:01;96907.06;;;28.08;57.47
44001;BME280;29660;42.892;24.710;2022-09-09T12:51:16;96684.31;;;26.44;61.14
44001;BME280;29660;42.892;24.710;2022-09-09T12:56:21;96938.88;;;27.98;62.31
44001;BME280;29660;42.892;24.710;2022-09-09T13:01:29;96722.13;;;26.63;64.47
44001;BME280;29660;42.892;24.710;2022-09-09T13:06:32;96756.50;;;26.68;65.97
44001;BME280;29660;42.892;24.710;2022-09-09T13:11:39;96812.97;;;27.07;64.30
44001;BME280;29660;42.892;24.710;2022-09-09T13:16:55;96752.22;;;26.63;65.82
44001;BME280;29660;42.892;24.710;2022-09-09T13:21:58;96889.38;;;27.60;68.13
44001;BME280;29660;42.892;24.710;2022-09-09T13:27:05;96890.94;;;27.58;66.98
44001;BME280;29660;42.892;24.710;2022-09-09T13:32:23;96540.34;;;25.14;66.71
44001;BME280;29660;42.892;24.710;2022-09-09T13:37:34;96696.16;;;26.09;67.95
44001;BME280;29660;42.892;24.710;2022-09-09T13:42:39;96902.38;;;27.49;68.18
44001;BME280;29660;42.892;24.710;2022-09-09T13:47:44;96653.31;;;25.88;69.04
44001;BME280;29660;42.892;24.710;2022-09-09T13:52:47;96875.44;;;27.37;71.90
44001;BME280;29660;42.892;24.710;2022-09-09T13:58:16;96905.78;;;27.75;69.39
44001;BME280;29660;42.892;24.710;2022-09-09T14:03:21;96875.38;;;27.51;70.84
44001;BME280;29660;42.892;24.710;2022-09-09T14:08:25;96891.72;;;27.58;69.14
44001;BME280;29660;42.892;24.710;2022-09-09T14:13:29;96885.50;;;27.54;67.57
44001;BME280;29660;42.892;24.710;2022-09-09T14:18:31;96662.97;;;26.17;68.68
44001;BME280;29660;42.892;24.710;2022-09-09T14:23:34;96899.09;;;27.72;69.44
44001;BME280;29660;42.892;24.710;2022-09-09T14:28:36;96859.41;;;27.35;70.93
44001;BME280;29660;42.892;24.710;2022-09-09T14:33:55;96693.38;;;26.27;68.54
44001;BME280;29660;42.892;24.710;2022-09-09T14:38:57;96894.97;;;27.42;68.12
44001;BME280;29660;42.892;24.710;2022-09-09T14:44:00;96679.44;;;25.96;68.72
44001;BME280;29660;42.892;24.710;2022-09-09T14:49:02;96658.41;;;25.75;68.67
44001;BME280;29660;42.892;24.710;2022-09-09T14:54:04;96876.38;;;26.98;68.73
44001;BME280;29660;42.892;24.710;2022-09-09T14:59:06;96784.38;;;26.31;71.99
44001;BME280;29660;42.892;24.710;2022-09-09T15:04:12;96904.50;;;27.09;72.04
44001;BME280;29660;42.892;24.710;2022-09-09T15:09:15;96923.66;;;27.06;71.45
44001;BME280;29660;42.892;24.710;2022-09-09T15:14:17;96868.69;;;26.43;75.73
44001;BME280;29660;42.892;24.710;2022-09-09T15:19:22;96699.00;;;25.41;74.64
44001;BME280;29660;42.892;24.710;2022-09-09T15:24:25;96660.81;;;25.12;73.80
44001;BME280;29660;42.892;24.710;2022-09-09T15:29:28;96601.16;;;24.79;73.16
44001;BME280;29660;42.892;24.710;2022-09-09T15:34:30;96697.47;;;25.40;72.99
44001;BME280;29660;42.892;24.710;2022-09-09T15:39:32;96743.06;;;25.57;73.36
44001;BME280;29660;42.892;24.710;2022-09-09T15:44:42;96811.00;;;25.98;72.77
44001;BME280;29660;42.892;24.710;2022-09-09T15:49:44;96803.97;;;25.86;68.31
44001;BME280;29660;42.892;24.710;2022-09-09T15:54:46;96917.19;;;26.50;68.83
44001;BME280;29660;42.892;24.710;2022-09-09T15:59:48;96902.28;;;26.36;65.72
44001;BME280;29660;42.892;24.710;2022-09-09T16:04:50;96909.34;;;26.34;63.87
44001;BME280;29660;42.892;24.710;2022-09-09T16:09:52;96704.81;;;24.93;66.47
44001;BME280;29660;42.892;24.710;2022-09-09T16:14:54;96697.38;;;24.76;69.48
44001;BME280;29660;42.892;24.710;2022-09-09T16:19:56;96905.44;;;25.85;69.56
44001;BME280;29660;42.892;24.710;2022-09-09T16:24:59;96897.19;;;25.56;70.19
44001;BME280;29660;42.892;24.710;2022-09-09T16:30:01;96850.28;;;25.18;68.33
44001;BME280;29660;42.892;24.710;2022-09-09T16:35:03;96702.56;;;24.04;69.55
44001;BME280;29660;42.892;24.710;2022-09-09T16:40:06;96707.53;;;23.88;70.02
44001;BME280;29660;42.892;24.710;2022-09-09T16:45:09;96851.25;;;24.67;72.01
44001;BME280;29660;42.892;24.710;2022-09-09T16:50:11;96917.63;;;24.93;73.66
44001;BME280;29660;42.892;24.710;2022-09-09T16:55:13;96929.19;;;24.72;80.14
44001;BME280;29660;42.892;24.710;2022-09-09T17:00:15;96728.78;;;23.16;81.72
44001;BME280;29660;42.892;24.710;2022-09-09T17:05:20;96896.41;;;24.06;83.98
44001;BME280;29660;42.892;24.710;2022-09-09T17:10:24;96752.53;;;22.86;84.53
44001;BME280;29660;42.892;24.710;2022-09-09T17:15:26;96765.56;;;22.69;85.61
44001;BME280;29660;42.892;24.710;2022-09-09T17:20:28;96698.53;;;22.13;85.88
44001;BME280;29660;42.892;24.710;2022-09-09T17:25:56;96925.31;;;23.40;83.14
44001;BME280;29660;42.892;24.710;2022-09-09T17:30:58;96697.16;;;21.70;82.40
44001;BME280;29660;42.892;24.710;2022-09-09T17:36:14;96902.00;;;22.78;83.15
44001;BME280;29660;42.892;24.710;2022-09-09T17:41:17;96943.53;;;22.75;83.88
44001;BME280;29660;42.892;24.710;2022-09-09T17:46:25;96955.03;;;22.65;82.87
44001;BME280;29660;42.892;24.710;2022-09-09T17:51:29;96864.53;;;21.85;87.75
44001;BME280;29660;42.892;24.710;2022-09-09T17:56:32;96736.38;;;20.80;89.35
44001;BME280;29660;42.892;24.710;2022-09-09T18:01:36;96941.94;;;21.98;89.18
44001;BME280;29660;42.892;24.710;2022-09-09T18:06:43;96865.44;;;21.27;88.29
44001;BME280;29660;42.892;24.710;2022-09-09T18:11:47;96987.47;;;21.86;89.32
44001;BME280;29660;42.892;24.710;2022-09-09T18:16:50;96759.94;;;20.22;88.16
44001;BME280;29660;42.892;24.710;2022-09-09T18:21:52;96966.81;;;21.39;89.35
44001;BME280;29660;42.892;24.710;2022-09-09T18:26:55;96999.09;;;21.44;87.84
44001;BME280;29660;42.892;24.710;2022-09-09T18:31:58;96975.19;;;21.14;89.78
44001;BME280;29660;42.892;24.710;2022-09-09T18:37:00;97009.50;;;21.22;92.13
44001;BME280;29660;42.892;24.710;2022-09-09T18:42:03;96805.09;;;19.82;91.24
44001;BME280;29660;42.892;24.710;2022-09-09T18:47:05;96750.41;;;19.42;92.65
44001;BME280;29660;42.892;24.710;2022-09-09T18:52:08;96998.16;;;21.01;94.66
44001;BME280;29660;42.892;24.710;2022-09-09T18:57:13;96732.00;;;19.16;94.17
44001;BME280;29660;42.892;24.710;2022-09-09T19:02:15;97010.38;;;20.91;96.92
44001;BME280;29660;42.892;24.710;2022-09-09T19:07:18;97019.13;;;20.84;95.07
44001;BME280;29660;42.892;24.710;2022-09-09T19:12:20;96580.16;;;18.03;95.76
44001;BME280;29660;42.892;24.710;2022-09-09T19:17:23;96933.53;;;20.32;94.70
44001;BME280;29660;42.892;24.710;2022-09-09T19:22:27;96996.88;;;20.59;96.52
44001;BME280;29660;42.892;24.710;2022-09-09T19:27:30;96773.34;;;19.16;95.00
44001;BME280;29660;42.892;24.710;2022-09-09T19:32:32;96786.34;;;19.26;94.93
44001;BME280;29660;42.892;24.710;2022-09-09T19:37:54;96748.22;;;19.00;95.39
44001;BME280;29660;42.892;24.710;2022-09-09T19:42:58;96784.34;;;19.23;95.48
44001;BME280;29660;42.892;24.710;2022-09-09T19:48:00;96783.19;;;19.24;95.64
44001;BME280;29660;42.892;24.710;2022-09-09T19:53:02;96957.16;;;20.35;95.25
44001;BME280;29660;42.892;24.710;2022-09-09T19:58:04;96771.41;;;19.17;95.57
44001;BME280;29660;42.892;24.710;2022-09-09T20:03:07;96744.91;;;18.91;96.06
44001;BME280;29660;42.892;24.710;2022-09-09T20:08:19;96947.16;;;20.20;98.32
44001;BME280;29660;42.892;24.710;2022-09-09T20:13:22;96934.31;;;20.01;98.12
44001;BME280;29660;42.892;24.710;2022-09-09T20:18:26;96946.91;;;20.09;97.96
44001;BME280;29660;42.892;24.710;2022-09-09T20:23:29;96697.34;;;18.46;96.86
44001;BME280;29660;42.892;24.710;2022-09-09T20:28:36;96945.56;;;20.03;98.71
44001;BME280;29660;42.892;24.710;2022-09-09T20:33:40;96902.91;;;19.81;98.41
44001;BME280;29660;42.892;24.710;2022-09-09T20:43:57;96760.72;;;18.76;99.87
44001;BME280;29660;42.892;24.710;2022-09-09T20:48:59;96890.03;;;19.62;99.12
44001;BME280;29660;42.892;24.710;2022-09-09T20:54:12;96933.00;;;19.79;99.09
44001;BME280;29660;42.892;24.710;2022-09-09T20:59:18;96929.50;;;19.63;98.81
44001;BME280;29660;42.892;24.710;2022-09-09T21:04:21;96935.47;;;19.56;100.00
44001;BME280;29660;42.892;24.710;2022-09-09T21:09:23;96939.00;;;19.45;100.00
44001;BME280;29660;42.892;24.710;2022-09-09T21:14:25;96866.09;;;19.04;100.00
44001;BME280;29660;42.892;24.710;2022-09-09T21:19:28;96673.09;;;17.65;100.00
44001;BME280;29660;42.892;24.710;2022-09-09T21:24:30;96940.78;;;19.25;100.00
44001;BME280;29660;42.892;24.710;2022-09-09T21:29:32;96706.78;;;17.71;100.00
44001;BME280;29660;42.892;24.710;2022-09-09T21:34:34;96803.16;;;18.23;100.00
44001;BME280;29660;42.892;24.710;2022-09-09T21:39:36;96917.69;;;18.99;100.00
44001;BME280;29660;42.892;24.710;2022-09-09T21:44:38;96865.75;;;18.65;100.00
44001;BME280;29660;42.892;24.710;2022-09-09T21:49:41;96913.53;;;18.89;100.00
44001;BME280;29660;42.892;24.710;2022-09-09T21:54:43;96684.34;;;17.42;100.00
44001;BME280;29660;42.892;24.710;2022-09-09T21:59:45;96732.09;;;17.66;100.00
44001;BME280;29660;42.892;24.710;2022-09-09T22:04:47;96728.13;;;17.64;100.00
44001;BME280;29660;42.892;24.710;2022-09-09T22:09:50;96916.50;;;18.84;100.00
44001;BME280;29660;42.892;24.710;2022-09-09T22:14:52;96807.94;;;18.14;100.00
44001;BME280;29660;42.892;24.710;2022-09-09T22:19:54;96935.66;;;18.79;100.00
44001;BME280;29660;42.892;24.710;2022-09-09T22:24:56;96897.47;;;18.69;100.00
44001;BME280;29660;42.892;24.710;2022-09-09T22:29:58;96889.50;;;18.60;100.00
44001;BME280;29660;42.892;24.710;2022-09-09T22:35:00;96878.03;;;18.51;100.00
44001;BME280;29660;42.892;24.710;2022-09-09T22:40:03;96871.09;;;18.37;100.00
44001;BME280;29660;42.892;24.710;2022-09-09T22:45:07;96674.94;;;17.12;100.00
44001;BME280;29660;42.892;24.710;2022-09-09T22:50:09;96883.69;;;18.46;100.00
44001;BME280;29660;42.892;24.710;2022-09-09T22:55:12;96649.13;;;16.86;100.00
44001;BME280;29660;42.892;24.710;2022-09-09T23:00:14;96734.69;;;17.38;100.00
44001;BME280;29660;42.892;24.710;2022-09-09T23:05:17;96868.06;;;18.27;100.00
44001;BME280;29660;42.892;24.710;2022-09-09T23:10:20;96703.66;;;17.08;100.00
44001;BME280;29660;42.892;24.710;2022-09-09T23:15:22;96883.84;;;18.25;100.00
44001;BME280;29660;42.892;24.710;2022-09-09T23:20:25;96853.81;;;18.02;100.00
44001;BME280;29660;42.892;24.710;2022-09-09T23:25:27;96877.88;;;18.19;100.00
44001;BME280;29660;42.892;24.710;2022-09-09T23:30:29;96665.03;;;16.91;100.00
44001;BME280;29660;42.892;24.710;2022-09-09T23:35:31;96861.56;;;18.15;100.00
44001;BME280;29660;42.892;24.710;2022-09-09T23:40:33;96634.59;;;16.66;100.00
44001;BME280;29660;42.892;24.710;2022-09-09T23:45:35;96857.97;;;18.11;100.00
44001;BME280;29660;42.892;24.710;2022-09-09T23:50:37;96758.81;;;17.47;100.00
44001;BME280;29660;42.892;24.710;2022-09-09T23:55:40;96619.28;;;16.46;100.00
